createdAt,value
2019-02-27T00:00:54.295Z,30.63
2019-02-27T00:01:54.278Z,30.82
2019-02-27T00:02:56.130Z,30.82
2019-02-27T00:03:54.280Z,30.33
2019-02-27T00:04:54.928Z,30.42
2019-02-27T00:05:54.234Z,31.24
2019-02-27T00:06:54.230Z,30.83
2019-02-27T00:07:54.955Z,30.42
2019-02-27T00:08:54.221Z,30.63
2019-02-27T00:09:54.930Z,30.44
2019-02-27T00:10:54.182Z,30.22
2019-02-27T00:11:54.169Z,31.12
2019-02-27T00:12:54.162Z,30.62
2019-02-27T00:13:57.836Z,30.72
2019-02-27T00:14:54.139Z,30.83
2019-02-27T00:15:54.128Z,30.74
2019-02-27T00:16:54.964Z,30.44
2019-02-27T00:17:54.109Z,31.13
2019-02-27T00:18:58.637Z,30.74
2019-02-27T00:19:54.083Z,30.44
2019-02-27T00:20:54.074Z,31.04
2019-02-27T00:21:54.932Z,30.63
2019-02-27T00:22:54.932Z,30.74
2019-02-27T00:23:56.725Z,30.74
2019-02-27T00:24:54.030Z,30.74
2019-02-27T00:25:54.019Z,30.72
2019-02-27T00:26:54.007Z,30.74
2019-02-27T00:27:54.933Z,30.72
2019-02-27T00:28:56.115Z,30.74
2019-02-27T00:29:54.939Z,30.74
2019-02-27T00:30:53.969Z,30.72
2019-02-27T00:31:53.952Z,30.74
2019-02-27T00:32:54.932Z,30.62
2019-02-27T00:33:53.947Z,30.74
2019-02-27T00:34:53.924Z,30.63
2019-02-27T00:35:53.958Z,30.44
2019-02-27T00:36:53.897Z,30.74
2019-02-27T00:37:53.886Z,30.44
2019-02-27T00:38:57.727Z,30.74
2019-02-27T00:39:53.868Z,30.54
2019-02-27T00:40:53.853Z,30.63
2019-02-27T00:41:54.435Z,30.54
2019-02-27T00:42:54.313Z,30.33
2019-02-27T00:43:53.821Z,30.44
2019-02-27T00:44:53.949Z,30.33
2019-02-27T00:45:53.797Z,30.33
2019-02-27T00:46:54.433Z,30.33
2019-02-27T00:47:53.886Z,30.33
2019-02-27T00:48:53.767Z,30.33
2019-02-27T00:49:53.770Z,30.44
2019-02-27T00:50:53.744Z,30.44
2019-02-27T00:51:53.733Z,30.33
2019-02-27T00:52:53.723Z,30.54
2019-02-27T00:53:55.952Z,30.54
2019-02-27T00:54:53.711Z,30.63
2019-02-27T00:55:53.689Z,30.54
2019-02-27T00:56:53.678Z,30.74
2019-02-27T00:57:54.432Z,30.63
2019-02-27T00:58:53.658Z,30.33
2019-02-27T00:59:53.659Z,30.44
2019-02-27T01:00:53.635Z,30.54
2019-02-27T01:01:53.623Z,30.33
2019-02-27T01:02:54.439Z,30.44
2019-02-27T01:03:53.602Z,30.24
2019-02-27T01:04:53.617Z,30.63
2019-02-27T01:05:53.581Z,30.44
2019-02-27T01:06:53.571Z,30.63
2019-02-27T01:07:54.219Z,30.63
2019-02-27T01:08:54.438Z,30.63
2019-02-27T01:09:53.959Z,30.44
2019-02-27T01:10:53.523Z,30.63
2019-02-27T01:11:53.517Z,30.54
2019-02-27T01:12:57.690Z,30.54
2019-02-27T01:13:54.436Z,30.63
2019-02-27T01:14:53.509Z,30.54
2019-02-27T01:15:53.472Z,30.63
2019-02-27T01:16:53.467Z,30.44
2019-02-27T01:17:55.044Z,30.63
2019-02-27T01:18:54.436Z,30.54
2019-02-27T01:19:53.453Z,30.54
2019-02-27T01:20:53.420Z,30.54
2019-02-27T01:21:53.408Z,30.63
2019-02-27T01:22:53.399Z,30.63
2019-02-27T01:23:53.387Z,30.54
2019-02-27T01:24:53.397Z,30.63
2019-02-27T01:25:56.290Z,30.33
2019-02-27T01:26:53.354Z,30.33
2019-02-27T01:27:53.936Z,30.14
2019-02-27T01:28:53.350Z,30.24
2019-02-27T01:29:53.336Z,30.54
2019-02-27T01:30:53.312Z,30.14
2019-02-27T01:31:54.967Z,30.33
2019-02-27T01:32:53.939Z,30.44
2019-02-27T01:33:53.279Z,30.63
2019-02-27T01:34:53.272Z,30.63
2019-02-27T01:35:53.271Z,30.54
2019-02-27T01:36:54.905Z,30.54
2019-02-27T01:37:53.234Z,30.54
2019-02-27T01:38:53.234Z,30.24
2019-02-27T01:39:53.212Z,30.14
2019-02-27T01:40:53.217Z,30.33
2019-02-27T01:41:55.291Z,30.14
2019-02-27T01:42:53.939Z,30.14
2019-02-27T01:43:53.169Z,30.24
2019-02-27T01:44:53.158Z,30.14
2019-02-27T01:45:54.308Z,30.55
2019-02-27T01:46:54.663Z,30.33
2019-02-27T01:47:53.126Z,30.24
2019-02-27T01:48:53.939Z,30.24
2019-02-27T01:49:53.106Z,30.33
2019-02-27T01:50:55.294Z,30.33
2019-02-27T01:51:53.085Z,30.33
2019-02-27T01:52:53.071Z,30.15
2019-02-27T01:53:53.939Z,30.14
2019-02-27T01:54:53.067Z,30.25
2019-02-27T01:55:56.166Z,30.14
2019-02-27T01:56:53.028Z,30.14
2019-02-27T01:57:53.940Z,30.14
2019-02-27T01:58:53.940Z,30.33
2019-02-27T01:59:53.955Z,30.15
2019-02-27T02:00:56.090Z,30.33
2019-02-27T02:01:52.975Z,30.33
2019-02-27T02:02:53.940Z,30.05
2019-02-27T02:03:52.955Z,30.33
2019-02-27T02:04:53.969Z,30.15
2019-02-27T02:05:52.929Z,30.33
2019-02-27T02:06:52.933Z,30.15
2019-02-27T02:07:53.440Z,30.35
2019-02-27T02:08:53.441Z,30.15
2019-02-27T02:09:55.204Z,30.35
2019-02-27T02:10:52.876Z,30.55
2019-02-27T02:11:52.872Z,30.35
2019-02-27T02:12:52.863Z,30.15
2019-02-27T02:13:53.440Z,30.25
2019-02-27T02:14:54.465Z,30.15
2019-02-27T02:15:52.824Z,30.75
2019-02-27T02:16:52.951Z,30.35
2019-02-27T02:17:53.441Z,30.14
2019-02-27T02:18:52.789Z,30.35
2019-02-27T02:19:54.293Z,30.75
2019-02-27T02:20:53.441Z,30.75
2019-02-27T02:21:52.953Z,30.25
2019-02-27T02:22:53.441Z,30.75
2019-02-27T02:23:52.755Z,30.65
2019-02-27T02:24:54.182Z,30.33
2019-02-27T02:25:52.713Z,30.25
2019-02-27T02:26:52.715Z,30.33
2019-02-27T02:27:53.443Z,30.35
2019-02-27T02:28:53.441Z,30.25
2019-02-27T02:29:53.143Z,30.75
2019-02-27T02:30:52.661Z,30.65
2019-02-27T02:31:52.954Z,30.85
2019-02-27T02:32:53.329Z,30.75
2019-02-27T02:33:53.444Z,30.25
2019-02-27T02:34:52.630Z,29.25
2019-02-27T02:35:52.607Z,30.74
2019-02-27T02:36:52.602Z,30.85
2019-02-27T02:37:52.596Z,30.45
2019-02-27T02:38:53.443Z,30.85
2019-02-27T02:39:54.656Z,30.75
2019-02-27T02:40:52.550Z,30.35
2019-02-27T02:41:53.443Z,30.85
2019-02-27T02:42:52.544Z,30.15
2019-02-27T02:43:52.520Z,30.15
2019-02-27T02:44:57.243Z,30.25
2019-02-27T02:45:52.498Z,30.45
2019-02-27T02:46:52.489Z,30.35
2019-02-27T02:47:55.531Z,30.35
2019-02-27T02:48:52.465Z,30.35
2019-02-27T02:49:52.517Z,30.35
2019-02-27T02:50:54.315Z,30.35
2019-02-27T02:51:52.433Z,30.25
2019-02-27T02:52:52.442Z,30.35
2019-02-27T02:53:52.411Z,30.15
2019-02-27T02:54:52.411Z,30.35
2019-02-27T02:55:52.409Z,30.15
2019-02-27T02:56:52.377Z,30.25
2019-02-27T02:57:52.455Z,30.35
2019-02-27T02:58:52.355Z,30.35
2019-02-27T02:59:52.359Z,30.35
2019-02-27T03:00:52.335Z,30.25
2019-02-27T03:01:52.324Z,30.35
2019-02-27T03:02:52.457Z,30.15
2019-02-27T03:03:52.944Z,30.25
2019-02-27T03:04:52.308Z,30.35
2019-02-27T03:05:58.635Z,30.15
2019-02-27T03:06:52.271Z,30.15
2019-02-27T03:07:52.288Z,30.35
2019-02-27T03:08:55.296Z,30.35
2019-02-27T03:09:52.274Z,30.35
2019-02-27T03:10:52.225Z,30.35
2019-02-27T03:11:54.736Z,30.35
2019-02-27T03:12:52.945Z,30.15
2019-02-27T03:13:52.456Z,30.15
2019-02-27T03:14:54.186Z,30.15
2019-02-27T03:15:52.172Z,30.15
2019-02-27T03:16:52.157Z,30.15
2019-02-27T03:17:54.862Z,30.25
2019-02-27T03:18:52.144Z,30.35
2019-02-27T03:19:52.127Z,30.35
2019-02-27T03:20:53.098Z,30.15
2019-02-27T03:21:52.106Z,30.35
2019-02-27T03:22:52.092Z,30.25
2019-02-27T03:23:52.562Z,30.15
2019-02-27T03:24:52.070Z,30.35
2019-02-27T03:25:52.949Z,30.15
2019-02-27T03:26:53.225Z,30.15
2019-02-27T03:27:52.082Z,30.35
2019-02-27T03:28:52.042Z,30.35
2019-02-27T03:29:53.609Z,30.35
2019-02-27T03:30:52.012Z,30.35
2019-02-27T03:31:59.970Z,30.15
2019-02-27T03:32:51.995Z,30.15
2019-02-27T03:33:51.993Z,30.25
2019-02-27T03:34:52.009Z,30.15
2019-02-27T03:35:52.946Z,30.35
2019-02-27T03:36:52.448Z,30.05
2019-02-27T03:37:51.929Z,30.15
2019-02-27T03:38:51.937Z,30.55
2019-02-27T03:39:51.909Z,30.35
2019-02-27T03:40:51.899Z,30.25
2019-02-27T03:41:58.472Z,30.45
2019-02-27T03:42:51.882Z,30.05
2019-02-27T03:43:51.881Z,30.35
2019-02-27T03:44:55.781Z,30.45
2019-02-27T03:45:51.845Z,30.15
2019-02-27T03:46:51.841Z,30.15
2019-02-27T03:47:52.952Z,30.15
2019-02-27T03:48:51.959Z,30.35
2019-02-27T03:49:51.800Z,30.15
2019-02-27T03:50:51.789Z,30.15
2019-02-27T03:51:51.779Z,30.25
2019-02-27T03:52:52.456Z,30.16
2019-02-27T03:53:51.766Z,30.15
2019-02-27T03:54:56.967Z,30.25
2019-02-27T03:55:51.747Z,30.55
2019-02-27T03:56:51.722Z,30.35
2019-02-27T03:57:54.943Z,30.15
2019-02-27T03:58:51.700Z,30.35
2019-02-27T03:59:51.700Z,30.05
2019-02-27T04:00:53.726Z,30.45
2019-02-27T04:01:52.449Z,30.25
2019-02-27T04:02:52.448Z,30.45
2019-02-27T04:03:55.252Z,30.15
2019-02-27T04:04:51.652Z,30.15
2019-02-27T04:05:51.661Z,30.15
2019-02-27T04:06:53.051Z,30.15
2019-02-27T04:07:51.607Z,30.35
2019-02-27T04:08:51.592Z,30.55
2019-02-27T04:09:55.331Z,30.15
2019-02-27T04:10:51.579Z,30.35
2019-02-27T04:11:52.448Z,30.25
2019-02-27T04:12:52.402Z,30.55
2019-02-27T04:13:51.541Z,30.55
2019-02-27T04:14:51.541Z,30.45
2019-02-27T04:15:53.824Z,30.25
2019-02-27T04:16:52.450Z,30.65
2019-02-27T04:17:52.244Z,30.55
2019-02-27T04:18:51.488Z,30.15
2019-02-27T04:19:51.479Z,30.25
2019-02-27T04:20:51.459Z,30.45
2019-02-27T04:21:51.947Z,30.25
2019-02-27T04:22:51.437Z,30.55
2019-02-27T04:23:51.425Z,30.55
2019-02-27T04:24:56.101Z,30.35
2019-02-27T04:25:51.407Z,30.45
2019-02-27T04:26:51.392Z,30.25
2019-02-27T04:27:55.285Z,30.55
2019-02-27T04:28:51.370Z,30.45
2019-02-27T04:29:51.371Z,30.25
2019-02-27T04:30:52.083Z,30.57
2019-02-27T04:31:51.338Z,30.25
2019-02-27T04:32:51.329Z,30.25
2019-02-27T04:33:51.950Z,30.15
2019-02-27T04:34:51.349Z,30.45
2019-02-27T04:35:51.310Z,30.25
2019-02-27T04:36:51.282Z,30.66
2019-02-27T04:37:53.905Z,30.27
2019-02-27T04:38:51.257Z,30.36
2019-02-27T04:39:51.251Z,30.35
2019-02-27T04:40:51.260Z,30.27
2019-02-27T04:41:52.030Z,30.35
2019-02-27T04:42:51.215Z,30.35
2019-02-27T04:43:51.202Z,30.55
2019-02-27T04:44:51.193Z,30.16
2019-02-27T04:45:51.209Z,30.55
2019-02-27T04:46:54.830Z,30.55
2019-02-27T04:47:51.160Z,30.27
2019-02-27T04:48:51.148Z,30.16
2019-02-27T04:49:51.147Z,30.35
2019-02-27T04:50:51.151Z,30.57
2019-02-27T04:51:51.151Z,30.35
2019-02-27T04:52:51.105Z,30.55
2019-02-27T04:53:51.096Z,30.66
2019-02-27T04:54:51.086Z,30.55
2019-02-27T04:55:51.333Z,30.66
2019-02-27T04:56:51.066Z,30.27
2019-02-27T04:57:51.049Z,30.66
2019-02-27T04:58:51.044Z,30.35
2019-02-27T04:59:52.300Z,30.65
2019-02-27T05:00:51.474Z,30.55
2019-02-27T05:01:51.006Z,30.66
2019-02-27T05:02:53.394Z,30.35
2019-02-27T05:03:50.984Z,30.55
2019-02-27T05:04:50.974Z,30.36
2019-02-27T05:05:50.985Z,30.65
2019-02-27T05:06:50.951Z,30.57
2019-02-27T05:07:54.069Z,30.57
2019-02-27T05:08:51.459Z,30.57
2019-02-27T05:09:50.926Z,30.65
2019-02-27T05:10:50.912Z,30.57
2019-02-27T05:11:50.924Z,30.45
2019-02-27T05:12:51.451Z,30.65
2019-02-27T05:13:54.134Z,30.65
2019-02-27T05:14:50.866Z,30.35
2019-02-27T05:15:50.880Z,30.66
2019-02-27T05:16:50.857Z,30.65
2019-02-27T05:17:53.088Z,30.57
2019-02-27T05:18:50.822Z,30.57
2019-02-27T05:19:52.035Z,30.57
2019-02-27T05:20:50.804Z,30.66
2019-02-27T05:21:52.478Z,30.25
2019-02-27T05:22:50.780Z,30.65
2019-02-27T05:23:50.767Z,30.55
2019-02-27T05:24:50.760Z,30.65
2019-02-27T05:25:50.744Z,30.66
2019-02-27T05:26:50.762Z,30.66
2019-02-27T05:27:50.723Z,30.35
2019-02-27T05:28:51.454Z,30.57
2019-02-27T05:29:50.701Z,30.36
2019-02-27T05:30:50.707Z,30.55
2019-02-27T05:31:53.339Z,30.66
2019-02-27T05:32:50.666Z,30.66
2019-02-27T05:33:50.667Z,30.36
2019-02-27T05:34:51.469Z,30.57
2019-02-27T05:35:50.637Z,30.55
2019-02-27T05:36:50.982Z,30.35
2019-02-27T05:37:50.617Z,30.65
2019-02-27T05:38:50.601Z,30.66
2019-02-27T05:39:51.136Z,30.57
2019-02-27T05:40:50.579Z,30.65
2019-02-27T05:41:50.979Z,30.66
2019-02-27T05:42:51.454Z,30.46
2019-02-27T05:43:50.546Z,30.25
2019-02-27T05:44:55.477Z,30.66
2019-02-27T05:45:50.526Z,30.66
2019-02-27T05:46:50.541Z,30.57
2019-02-27T05:47:50.505Z,30.66
2019-02-27T05:48:50.845Z,30.57
2019-02-27T05:49:51.457Z,30.55
2019-02-27T05:50:50.468Z,30.57
2019-02-27T05:51:50.985Z,30.57
2019-02-27T05:52:50.451Z,30.66
2019-02-27T05:53:50.439Z,30.57
2019-02-27T05:54:50.956Z,30.65
2019-02-27T05:55:50.955Z,30.36
2019-02-27T05:56:50.431Z,30.66
2019-02-27T05:57:50.393Z,30.66
2019-02-27T05:58:50.383Z,30.36
2019-02-27T05:59:50.970Z,30.57
2019-02-27T06:00:50.362Z,30.36
2019-02-27T06:01:50.489Z,30.55
2019-02-27T06:02:50.340Z,30.55
2019-02-27T06:03:52.318Z,30.57
2019-02-27T06:04:50.317Z,30.66
2019-02-27T06:05:50.306Z,30.66
2019-02-27T06:06:50.468Z,30.66
2019-02-27T06:07:50.284Z,30.66
2019-02-27T06:08:50.274Z,30.66
2019-02-27T06:09:50.300Z,30.36
2019-02-27T06:10:55.191Z,30.57
2019-02-27T06:11:50.243Z,30.57
2019-02-27T06:12:50.237Z,30.36
2019-02-27T06:13:50.217Z,30.66
2019-02-27T06:14:54.794Z,30.57
2019-02-27T06:15:50.196Z,30.57
2019-02-27T06:16:50.186Z,30.65
2019-02-27T06:17:50.186Z,30.36
2019-02-27T06:18:50.163Z,30.57
2019-02-27T06:19:50.958Z,30.66
2019-02-27T06:20:50.141Z,30.57
2019-02-27T06:21:50.135Z,30.65
2019-02-27T06:22:50.134Z,30.66
2019-02-27T06:23:50.112Z,30.57
2019-02-27T06:24:50.097Z,30.66
2019-02-27T06:25:50.093Z,30.57
2019-02-27T06:26:50.075Z,30.66
2019-02-27T06:27:50.095Z,30.57
2019-02-27T06:28:50.958Z,30.57
2019-02-27T06:29:50.967Z,30.66
2019-02-27T06:30:50.034Z,30.66
2019-02-27T06:31:50.035Z,30.65
2019-02-27T06:32:50.476Z,30.57
2019-02-27T06:33:50.958Z,30.36
2019-02-27T06:34:50.960Z,30.16
2019-02-27T06:35:49.978Z,30.16
2019-02-27T06:36:49.989Z,30.46
2019-02-27T06:37:50.862Z,30.27
2019-02-27T06:38:49.942Z,29.57
2019-02-27T06:39:49.942Z,29.47
2019-02-27T06:40:49.920Z,30.16
2019-02-27T06:41:50.438Z,30.07
2019-02-27T06:42:53.432Z,29.67
2019-02-27T06:43:49.889Z,29.06
2019-02-27T06:44:49.882Z,29.57
2019-02-27T06:45:49.871Z,29.27
2019-02-27T06:46:51.146Z,29.86
2019-02-27T06:47:49.870Z,29.36
2019-02-27T06:48:50.458Z,28.17
2019-02-27T06:49:51.976Z,28.17
2019-02-27T06:50:49.816Z,28.37
2019-02-27T06:51:50.474Z,28.27
2019-02-27T06:52:50.459Z,28.37
2019-02-27T06:53:49.795Z,28.47
2019-02-27T06:54:51.917Z,28.47
2019-02-27T06:55:49.763Z,28.37
2019-02-27T06:56:50.475Z,28.37
2019-02-27T06:57:49.742Z,28.37
2019-02-27T06:58:50.140Z,28.47
2019-02-27T06:59:49.715Z,28.97
2019-02-27T07:00:50.462Z,28.57
2019-02-27T07:01:50.474Z,28.67
2019-02-27T07:02:49.687Z,28.77
2019-02-27T07:03:49.682Z,28.57
2019-02-27T07:04:49.660Z,28.97
2019-02-27T07:05:50.477Z,28.97
2019-02-27T07:06:49.644Z,29.06
2019-02-27T07:07:49.629Z,28.67
2019-02-27T07:08:49.632Z,28.87
2019-02-27T07:09:49.604Z,28.57
2019-02-27T07:10:49.596Z,28.37
2019-02-27T07:11:49.586Z,28.27
2019-02-27T07:12:54.404Z,27.67
2019-02-27T07:13:49.571Z,27.67
2019-02-27T07:14:50.468Z,28.07
2019-02-27T07:15:49.542Z,27.58
2019-02-27T07:16:49.534Z,28.37
2019-02-27T07:17:50.460Z,27.78
2019-02-27T07:18:49.526Z,28.48
2019-02-27T07:19:49.888Z,27.58
2019-02-27T07:20:49.485Z,28.38
2019-02-27T07:21:50.460Z,28.48
2019-02-27T07:22:49.961Z,28.37
2019-02-27T07:23:49.466Z,28.37
2019-02-27T07:24:49.441Z,28.48
2019-02-27T07:25:49.430Z,28.78
2019-02-27T07:26:50.292Z,28.38
2019-02-27T07:27:49.411Z,28.38
2019-02-27T07:28:49.410Z,28.47
2019-02-27T07:29:49.973Z,28.67
2019-02-27T07:30:49.379Z,28.37
2019-02-27T07:31:49.515Z,28.67
2019-02-27T07:32:49.980Z,28.17
2019-02-27T07:33:49.376Z,28.57
2019-02-27T07:34:49.779Z,28.27
2019-02-27T07:35:49.324Z,28.17
2019-02-27T07:36:49.309Z,28.37
2019-02-27T07:37:49.974Z,28.77
2019-02-27T07:38:49.299Z,28.77
2019-02-27T07:39:49.963Z,28.77
2019-02-27T07:40:49.265Z,29.06
2019-02-27T07:41:49.979Z,29.06
2019-02-27T07:42:49.256Z,28.57
2019-02-27T07:43:49.234Z,28.87
2019-02-27T07:44:49.228Z,28.77
2019-02-27T07:45:49.211Z,28.38
2019-02-27T07:46:49.203Z,28.37
2019-02-27T07:47:49.200Z,28.27
2019-02-27T07:48:49.173Z,28.47
2019-02-27T07:49:49.178Z,28.77
2019-02-27T07:50:49.963Z,28.27
2019-02-27T07:51:49.145Z,28.27
2019-02-27T07:52:49.174Z,28.27
2019-02-27T07:53:51.445Z,28.87
2019-02-27T07:54:49.483Z,28.07
2019-02-27T07:55:49.105Z,28.37
2019-02-27T07:56:49.088Z,28.17
2019-02-27T07:57:49.079Z,28.07
2019-02-27T07:58:49.078Z,28.37
2019-02-27T07:59:49.478Z,28.37
2019-02-27T08:00:49.839Z,28.27
2019-02-27T08:01:49.034Z,28.25
2019-02-27T08:02:49.022Z,28.27
2019-02-27T08:03:49.977Z,28.27
2019-02-27T08:04:51.675Z,28.27
2019-02-27T08:05:48.991Z,29.06
2019-02-27T08:06:48.981Z,28.87
2019-02-27T08:07:49.877Z,28.96
2019-02-27T08:08:49.480Z,28.66
2019-02-27T08:09:48.958Z,28.45
2019-02-27T08:10:48.937Z,28.55
2019-02-27T08:11:49.465Z,29.95
2019-02-27T08:12:48.946Z,29.05
2019-02-27T08:13:48.914Z,27.95
2019-02-27T08:14:48.908Z,26.46
2019-02-27T08:15:49.469Z,26.65
2019-02-27T08:16:48.874Z,25.96
2019-02-27T08:17:48.934Z,25.56
2019-02-27T08:18:48.876Z,25.66
2019-02-27T08:19:48.985Z,25.57
2019-02-27T08:20:54.200Z,24.77
2019-02-27T08:21:48.817Z,25.17
2019-02-27T08:22:49.652Z,25.77
2019-02-27T08:23:49.478Z,25.07
2019-02-27T08:24:48.979Z,24.57
2019-02-27T08:25:48.772Z,25.07
2019-02-27T08:26:49.204Z,24.37
2019-02-27T08:27:48.750Z,24.79
2019-02-27T08:28:48.748Z,24.88
2019-02-27T08:29:48.727Z,25.09
2019-02-27T08:30:48.722Z,24.79
2019-02-27T08:31:48.722Z,25.38
2019-02-27T08:32:48.693Z,25.68
2019-02-27T08:33:48.682Z,25.59
2019-02-27T08:34:48.676Z,25.59
2019-02-27T08:35:49.496Z,25.68
2019-02-27T08:36:48.660Z,25.78
2019-02-27T08:37:49.467Z,25.59
2019-02-27T08:38:48.647Z,25.78
2019-02-27T08:39:49.471Z,25.59
2019-02-27T08:40:48.615Z,25.89
2019-02-27T08:41:48.592Z,25.78
2019-02-27T08:42:49.467Z,25.68
2019-02-27T08:43:48.582Z,26.08
2019-02-27T08:44:49.466Z,25.28
2019-02-27T08:45:48.557Z,25.18
2019-02-27T08:46:48.538Z,24.79
2019-02-27T08:47:48.531Z,25.09
2019-02-27T08:48:50.111Z,24.48
2019-02-27T08:49:48.506Z,24.88
2019-02-27T08:50:48.512Z,25.09
2019-02-27T08:51:48.488Z,25.28
2019-02-27T08:52:51.549Z,24.17
2019-02-27T08:53:48.992Z,24.08
2019-02-27T08:54:48.453Z,24.18
2019-02-27T08:55:48.450Z,24.29
2019-02-27T08:56:48.443Z,23.99
2019-02-27T08:57:49.927Z,24.38
2019-02-27T08:58:48.411Z,24.68
2019-02-27T08:59:48.971Z,24.08
2019-02-27T09:00:48.397Z,24.38
2019-02-27T09:01:48.990Z,24.29
2019-02-27T09:02:48.364Z,23.99
2019-02-27T09:03:49.153Z,24.18
2019-02-27T09:04:48.974Z,24.58
2019-02-27T09:05:51.003Z,24.68
2019-02-27T09:06:48.330Z,24.29
2019-02-27T09:07:48.313Z,25.28
2019-02-27T09:08:48.310Z,24.18
2019-02-27T09:09:51.376Z,24.18
2019-02-27T09:10:48.274Z,25.38
2019-02-27T09:11:48.989Z,24.87
2019-02-27T09:12:49.101Z,24.29
2019-02-27T09:13:48.242Z,25.37
2019-02-27T09:14:48.970Z,24.67
2019-02-27T09:15:48.224Z,25.27
2019-02-27T09:16:48.221Z,24.87
2019-02-27T09:17:48.198Z,25.07
2019-02-27T09:18:48.190Z,24.67
2019-02-27T09:19:48.972Z,25.67
2019-02-27T09:20:53.039Z,25.57
2019-02-27T09:21:48.164Z,26.07
2019-02-27T09:22:48.146Z,25.57
2019-02-27T09:23:48.131Z,25.67
2019-02-27T09:24:48.123Z,26.06
2019-02-27T09:25:48.957Z,25.46
2019-02-27T09:26:48.121Z,25.56
2019-02-27T09:27:48.970Z,25.66
2019-02-27T09:28:48.108Z,24.76
2019-02-27T09:29:49.392Z,25.76
2019-02-27T09:30:48.055Z,24.86
2019-02-27T09:31:51.063Z,24.16
2019-02-27T09:32:48.044Z,24.86
2019-02-27T09:33:48.024Z,24.76
2019-02-27T09:34:49.111Z,25.76
2019-02-27T09:35:48.001Z,25.96
2019-02-27T09:36:49.161Z,25.06
2019-02-27T09:37:51.238Z,24.76
2019-02-27T09:38:48.000Z,24.96
2019-02-27T09:39:48.016Z,24.06
2019-02-27T09:40:47.951Z,24.86
2019-02-27T09:41:48.478Z,24.86
2019-02-27T09:42:50.226Z,24.06
2019-02-27T09:43:47.923Z,24.06
2019-02-27T09:44:48.482Z,24.16
2019-02-27T09:45:48.485Z,24.55
2019-02-27T09:46:49.922Z,25.66
2019-02-27T09:47:47.879Z,24.86
2019-02-27T09:48:48.471Z,24.86
2019-02-27T09:49:47.858Z,25.36
2019-02-27T09:50:48.917Z,24.76
2019-02-27T09:51:47.826Z,25.24
2019-02-27T09:52:47.825Z,25.74
2019-02-27T09:53:47.805Z,25.85
2019-02-27T09:54:48.482Z,25.74
2019-02-27T09:55:47.779Z,25.35
2019-02-27T09:56:48.471Z,25.55
2019-02-27T09:57:47.773Z,25.35
2019-02-27T09:58:48.472Z,25.65
2019-02-27T09:59:51.107Z,25.55
2019-02-27T10:00:47.729Z,25.55
2019-02-27T10:01:48.476Z,25.85
2019-02-27T10:02:47.726Z,25.55
2019-02-27T10:03:47.692Z,25.73
2019-02-27T10:04:47.690Z,25.84
2019-02-27T10:05:47.875Z,25.54
2019-02-27T10:06:47.667Z,25.84
2019-02-27T10:07:51.345Z,26.33
2019-02-27T10:08:47.651Z,26.14
2019-02-27T10:09:47.637Z,26.33
2019-02-27T10:10:47.615Z,25.93
2019-02-27T10:11:47.605Z,26.33
2019-02-27T10:12:47.616Z,26.93
2019-02-27T10:13:47.588Z,26.53
2019-02-27T10:14:50.253Z,26.03
2019-02-27T10:15:47.562Z,26.23
2019-02-27T10:16:48.479Z,26.23
2019-02-27T10:17:47.549Z,25.92
2019-02-27T10:18:47.529Z,26.02
2019-02-27T10:19:48.497Z,26.52
2019-02-27T10:20:48.475Z,26.62
2019-02-27T10:21:47.643Z,25.92
2019-02-27T10:22:47.514Z,25.92
2019-02-27T10:23:47.482Z,26.22
2019-02-27T10:24:47.477Z,26.12
2019-02-27T10:25:49.851Z,26.32
2019-02-27T10:26:47.458Z,26.72
2019-02-27T10:27:47.460Z,26.42
2019-02-27T10:28:47.431Z,26.62
2019-02-27T10:29:48.514Z,26.02
2019-02-27T10:30:49.914Z,26.22
2019-02-27T10:31:48.023Z,26.70
2019-02-27T10:32:47.372Z,26.62
2019-02-27T10:33:47.369Z,26.42
2019-02-27T10:34:47.360Z,27.40
2019-02-27T10:35:47.348Z,27.20
2019-02-27T10:36:47.718Z,27.81
2019-02-27T10:37:50.403Z,26.62
2019-02-27T10:38:48.002Z,27.20
2019-02-27T10:39:47.296Z,27.30
2019-02-27T10:40:47.291Z,27.00
2019-02-27T10:41:49.702Z,26.81
2019-02-27T10:42:50.334Z,26.90
2019-02-27T10:43:47.271Z,27.50
2019-02-27T10:44:48.020Z,27.30
2019-02-27T10:45:49.299Z,27.11
2019-02-27T10:46:48.174Z,26.51
2019-02-27T10:47:47.211Z,26.90
2019-02-27T10:48:47.666Z,27.50
2019-02-27T10:49:47.199Z,26.70
2019-02-27T10:50:47.982Z,26.70
2019-02-27T10:51:47.177Z,27.00
2019-02-27T10:52:49.949Z,27.39
2019-02-27T10:53:47.156Z,26.90
2019-02-27T10:54:47.145Z,26.69
2019-02-27T10:55:49.322Z,27.39
2019-02-27T10:56:47.116Z,27.29
2019-02-27T10:57:47.115Z,27.19
2019-02-27T10:58:47.679Z,26.20
2019-02-27T10:59:47.110Z,27.49
2019-02-27T11:00:47.070Z,27.49
2019-02-27T11:01:47.977Z,26.59
2019-02-27T11:02:47.903Z,26.59
2019-02-27T11:03:47.489Z,26.39
2019-02-27T11:04:47.029Z,26.39
2019-02-27T11:05:47.012Z,26.89
2019-02-27T11:06:47.002Z,26.38
2019-02-27T11:07:46.992Z,26.28
2019-02-27T11:08:46.981Z,26.20
2019-02-27T11:09:46.991Z,26.68
2019-02-27T11:10:47.481Z,26.68
2019-02-27T11:11:48.682Z,26.58
2019-02-27T11:12:46.938Z,26.98
2019-02-27T11:13:48.463Z,26.48
2019-02-27T11:14:46.936Z,27.47
2019-02-27T11:15:47.478Z,26.37
2019-02-27T11:16:46.896Z,27.17
2019-02-27T11:17:46.884Z,26.58
2019-02-27T11:18:46.875Z,26.18
2019-02-27T11:19:47.005Z,26.68
2019-02-27T11:20:47.483Z,27.06
2019-02-27T11:21:46.838Z,26.68
2019-02-27T11:22:46.842Z,26.67
2019-02-27T11:23:47.482Z,27.36
2019-02-27T11:24:49.008Z,26.07
2019-02-27T11:25:47.575Z,27.36
2019-02-27T11:26:46.785Z,26.97
2019-02-27T11:27:46.777Z,26.68
2019-02-27T11:28:47.848Z,27.17
2019-02-27T11:29:47.021Z,26.87
2019-02-27T11:30:47.488Z,27.06
2019-02-27T11:31:47.478Z,27.06
2019-02-27T11:32:47.478Z,27.47
2019-02-27T11:33:46.703Z,27.76
2019-02-27T11:34:48.504Z,27.26
2019-02-27T11:35:46.681Z,26.97
2019-02-27T11:36:46.672Z,26.57
2019-02-27T11:37:47.514Z,26.37
2019-02-27T11:38:47.501Z,26.37
2019-02-27T11:39:46.643Z,26.37
2019-02-27T11:40:46.776Z,26.27
2019-02-27T11:41:48.466Z,26.87
2019-02-27T11:42:47.527Z,26.97
2019-02-27T11:43:47.507Z,26.87
2019-02-27T11:44:49.455Z,27.26
2019-02-27T11:45:46.572Z,27.06
2019-02-27T11:46:46.565Z,27.06
2019-02-27T11:47:48.127Z,26.37
2019-02-27T11:48:47.480Z,26.57
2019-02-27T11:49:46.542Z,26.37
2019-02-27T11:50:47.508Z,26.65
2019-02-27T11:51:46.505Z,26.76
2019-02-27T11:52:49.119Z,26.67
2019-02-27T11:53:46.483Z,27.05
2019-02-27T11:54:46.484Z,27.35
2019-02-27T11:55:47.387Z,26.65
2019-02-27T11:56:46.450Z,26.45
2019-02-27T11:57:46.437Z,26.06
2019-02-27T11:58:46.427Z,26.35
2019-02-27T11:59:46.892Z,26.35
2019-02-27T12:00:46.502Z,26.26
2019-02-27T12:01:46.409Z,26.75
2019-02-27T12:02:46.385Z,26.65
2019-02-27T12:03:46.568Z,26.75
2019-02-27T12:04:46.362Z,27.25
2019-02-27T12:05:46.369Z,26.45
2019-02-27T12:06:46.981Z,25.96
2019-02-27T12:07:50.804Z,26.35
2019-02-27T12:08:46.325Z,26.65
2019-02-27T12:09:46.306Z,26.34
2019-02-27T12:10:46.506Z,26.25
2019-02-27T12:11:48.730Z,26.44
2019-02-27T12:12:47.001Z,26.25
2019-02-27T12:13:46.263Z,25.95
2019-02-27T12:14:46.254Z,26.64
2019-02-27T12:15:46.274Z,26.44
2019-02-27T12:16:51.377Z,26.04
2019-02-27T12:17:47.015Z,26.15
2019-02-27T12:18:46.213Z,25.45
2019-02-27T12:19:46.987Z,25.95
2019-02-27T12:20:46.509Z,25.95
2019-02-27T12:21:46.982Z,26.34
2019-02-27T12:22:46.162Z,27.04
2019-02-27T12:23:46.151Z,26.54
2019-02-27T12:24:46.983Z,25.85
2019-02-27T12:25:46.149Z,25.55
2019-02-27T12:26:46.999Z,25.35
2019-02-27T12:27:49.785Z,25.45
2019-02-27T12:28:47.553Z,26.25
2019-02-27T12:29:46.982Z,26.44
2019-02-27T12:30:46.097Z,26.04
2019-02-27T12:31:48.397Z,26.84
2019-02-27T12:32:46.051Z,27.04
2019-02-27T12:33:46.041Z,26.64
2019-02-27T12:34:46.984Z,25.65
2019-02-27T12:35:46.059Z,25.84
2019-02-27T12:36:46.006Z,26.54
2019-02-27T12:37:45.994Z,25.95
2019-02-27T12:38:46.121Z,26.33
2019-02-27T12:39:47.274Z,26.13
2019-02-27T12:40:45.973Z,26.53
2019-02-27T12:41:45.964Z,27.03
2019-02-27T12:42:46.488Z,26.13
2019-02-27T12:43:45.925Z,26.13
2019-02-27T12:44:45.916Z,25.95
2019-02-27T12:45:45.922Z,25.93
2019-02-27T12:46:45.911Z,26.43
2019-02-27T12:47:45.895Z,27.03
2019-02-27T12:48:47.074Z,26.13
2019-02-27T12:49:45.859Z,27.34
2019-02-27T12:50:45.856Z,26.93
2019-02-27T12:51:45.865Z,26.34
2019-02-27T12:52:47.918Z,26.25